TAF and METAR

Could not understand the following METAR

NCMG 191500Z AUTO 15006KT //// ///// 26/25 Q1008
No TAF available for Mangaia Island Airport
Mangaia Island Airport in Cook Islands

Latest 5 airports